sensor_id;sensor_type;location;lat;lon;timestamp;P1;durP1;ratioP1;P2;durP2;ratioP2
15899;SDS011;8048;50.644;6.184;2024-03-08T00:01:06;14.50;;;12.43;;
15899;SDS011;8048;50.644;6.184;2024-03-08T00:03:31;16.03;;;13.43;;
15899;SDS011;8048;50.644;6.184;2024-03-08T00:05:57;16.30;;;12.10;;
15899;SDS011;8048;50.644;6.184;2024-03-08T00:08:23;15.83;;;13.43;;
15899;SDS011;8048;50.644;6.184;2024-03-08T00:10:49;17.73;;;12.20;;
15899;SDS011;8048;50.644;6.184;2024-03-08T00:13:15;16.10;;;13.40;;
15899;SDS011;8048;50.644;6.184;2024-03-08T00:15:41;16.73;;;12.80;;
15899;SDS011;8048;50.644;6.184;2024-03-08T00:18:06;18.63;;;12.90;;
15899;SDS011;8048;50.644;6.184;2024-03-08T00:20:32;21.37;;;13.97;;
15899;SDS011;8048;50.644;6.184;2024-03-08T00:22:58;16.80;;;13.97;;
15899;SDS011;8048;50.644;6.184;2024-03-08T00:25:24;19.30;;;13.40;;
15899;SDS011;8048;50.644;6.184;2024-03-08T00:27:49;18.33;;;14.50;;
15899;SDS011;8048;50.644;6.184;2024-03-08T00:30:15;19.53;;;13.13;;
15899;SDS011;8048;50.644;6.184;2024-03-08T00:32:41;14.10;;;12.50;;
15899;SDS011;8048;50.644;6.184;2024-03-08T00:35:06;17.90;;;13.90;;
15899;SDS011;8048;50.644;6.184;2024-03-08T00:37:32;13.40;;;11.37;;
15899;SDS011;8048;50.644;6.184;2024-03-08T00:39:59;19.27;;;12.93;;
15899;SDS011;8048;50.644;6.184;2024-03-08T00:42:25;18.40;;;13.80;;
15899;SDS011;8048;50.644;6.184;2024-03-08T00:44:51;14.40;;;12.50;;
15899;SDS011;8048;50.644;6.184;2024-03-08T00:47:17;15.50;;;12.00;;
15899;SDS011;8048;50.644;6.184;2024-03-08T00:49:42;18.67;;;13.47;;
15899;SDS011;8048;50.644;6.184;2024-03-08T00:52:08;20.07;;;14.27;;
15899;SDS011;8048;50.644;6.184;2024-03-08T00:54:34;13.60;;;11.97;;
15899;SDS011;8048;50.644;6.184;2024-03-08T00:57:03;19.20;;;14.27;;
15899;SDS011;8048;50.644;6.184;2024-03-08T00:59:29;14.10;;;12.07;;
15899;SDS011;8048;50.644;6.184;2024-03-08T01:01:57;18.70;;;13.80;;
15899;SDS011;8048;50.644;6.184;2024-03-08T01:04:24;18.73;;;13.90;;
15899;SDS011;8048;50.644;6.184;2024-03-08T01:06:50;16.60;;;13.50;;
15899;SDS011;8048;50.644;6.184;2024-03-08T01:09:16;15.97;;;12.90;;
15899;SDS011;8048;50.644;6.184;2024-03-08T01:11:42;15.17;;;12.37;;
15899;SDS011;8048;50.644;6.184;2024-03-08T01:14:08;19.13;;;14.57;;
15899;SDS011;8048;50.644;6.184;2024-03-08T01:16:34;13.80;;;11.90;;
15899;SDS011;8048;50.644;6.184;2024-03-08T01:18:59;16.30;;;13.87;;
15899;SDS011;8048;50.644;6.184;2024-03-08T01:21:25;17.50;;;13.97;;
15899;SDS011;8048;50.644;6.184;2024-03-08T01:23:51;18.97;;;13.93;;
15899;SDS011;8048;50.644;6.184;2024-03-08T01:26:16;17.77;;;13.27;;
15899;SDS011;8048;50.644;6.184;2024-03-08T01:28:42;23.90;;;15.17;;
15899;SDS011;8048;50.644;6.184;2024-03-08T01:31:07;17.20;;;13.53;;
15899;SDS011;8048;50.644;6.184;2024-03-08T01:33:33;15.70;;;13.83;;
15899;SDS011;8048;50.644;6.184;2024-03-08T01:35:58;16.80;;;13.40;;
15899;SDS011;8048;50.644;6.184;2024-03-08T01:38:24;18.13;;;13.40;;
15899;SDS011;8048;50.644;6.184;2024-03-08T01:40:50;12.10;;;10.20;;
15899;SDS011;8048;50.644;6.184;2024-03-08T01:45:53;17.60;;;13.10;;
15899;SDS011;8048;50.644;6.184;2024-03-08T01:48:20;18.93;;;13.97;;
15899;SDS011;8048;50.644;6.184;2024-03-08T01:50:49;16.87;;;13.20;;
15899;SDS011;8048;50.644;6.184;2024-03-08T01:53:17;20.40;;;14.37;;
15899;SDS011;8048;50.644;6.184;2024-03-08T01:55:44;15.37;;;12.10;;
15899;SDS011;8048;50.644;6.184;2024-03-08T01:58:12;15.43;;;12.43;;
15899;SDS011;8048;50.644;6.184;2024-03-08T02:00:42;17.50;;;12.47;;
15899;SDS011;8048;50.644;6.184;2024-03-08T02:03:10;18.47;;;15.33;;
15899;SDS011;8048;50.644;6.184;2024-03-08T02:05:40;17.57;;;13.43;;
15899;SDS011;8048;50.644;6.184;2024-03-08T02:08:06;16.97;;;12.87;;
15899;SDS011;8048;50.644;6.184;2024-03-08T02:10:35;16.77;;;13.20;;
15899;SDS011;8048;50.644;6.184;2024-03-08T02:13:01;15.93;;;12.30;;
15899;SDS011;8048;50.644;6.184;2024-03-08T02:15:49;17.40;;;13.67;;
15899;SDS011;8048;50.644;6.184;2024-03-08T02:18:17;19.70;;;14.70;;
15899;SDS011;8048;50.644;6.184;2024-03-08T02:20:43;16.90;;;12.80;;
15899;SDS011;8048;50.644;6.184;2024-03-08T02:23:08;16.80;;;12.93;;
15899;SDS011;8048;50.644;6.184;2024-03-08T02:25:34;20.50;;;14.50;;
15899;SDS011;8048;50.644;6.184;2024-03-08T02:28:00;15.00;;;12.40;;
15899;SDS011;8048;50.644;6.184;2024-03-08T02:30:26;14.60;;;11.77;;
15899;SDS011;8048;50.644;6.184;2024-03-08T02:32:54;17.70;;;13.20;;
15899;SDS011;8048;50.644;6.184;2024-03-08T02:35:20;16.47;;;12.73;;
15899;SDS011;8048;50.644;6.184;2024-03-08T02:37:46;16.03;;;13.00;;
15899;SDS011;8048;50.644;6.184;2024-03-08T02:40:12;16.20;;;13.63;;
15899;SDS011;8048;50.644;6.184;2024-03-08T02:42:38;16.10;;;13.83;;
15899;SDS011;8048;50.644;6.184;2024-03-08T02:45:04;16.60;;;13.07;;
15899;SDS011;8048;50.644;6.184;2024-03-08T02:47:31;17.90;;;13.70;;
15899;SDS011;8048;50.644;6.184;2024-03-08T02:49:56;19.27;;;14.97;;
15899;SDS011;8048;50.644;6.184;2024-03-08T02:52:22;19.20;;;14.37;;
15899;SDS011;8048;50.644;6.184;2024-03-08T02:54:48;15.83;;;12.60;;
15899;SDS011;8048;50.644;6.184;2024-03-08T02:57:14;18.97;;;14.13;;
15899;SDS011;8048;50.644;6.184;2024-03-08T02:59:41;18.57;;;13.50;;
15899;SDS011;8048;50.644;6.184;2024-03-08T03:02:07;16.43;;;13.17;;
15899;SDS011;8048;50.644;6.184;2024-03-08T03:04:32;18.60;;;13.90;;
15899;SDS011;8048;50.644;6.184;2024-03-08T03:07:01;20.33;;;15.00;;
15899;SDS011;8048;50.644;6.184;2024-03-08T03:09:26;18.77;;;13.90;;
15899;SDS011;8048;50.644;6.184;2024-03-08T03:11:53;18.53;;;12.80;;
15899;SDS011;8048;50.644;6.184;2024-03-08T03:14:20;19.43;;;13.37;;
15899;SDS011;8048;50.644;6.184;2024-03-08T03:16:46;17.97;;;12.97;;
15899;SDS011;8048;50.644;6.184;2024-03-08T03:19:12;13.67;;;11.97;;
15899;SDS011;8048;50.644;6.184;2024-03-08T03:21:37;13.07;;;11.67;;
15899;SDS011;8048;50.644;6.184;2024-03-08T03:24:03;18.77;;;12.60;;
15899;SDS011;8048;50.644;6.184;2024-03-08T03:26:35;16.77;;;12.80;;
15899;SDS011;8048;50.644;6.184;2024-03-08T03:29:07;15.57;;;13.50;;
15899;SDS011;8048;50.644;6.184;2024-03-08T03:31:34;16.67;;;12.70;;
15899;SDS011;8048;50.644;6.184;2024-03-08T03:34:00;19.50;;;13.10;;
15899;SDS011;8048;50.644;6.184;2024-03-08T03:36:29;18.43;;;13.40;;
15899;SDS011;8048;50.644;6.184;2024-03-08T03:38:55;19.97;;;15.07;;
15899;SDS011;8048;50.644;6.184;2024-03-08T03:41:38;16.00;;;12.83;;
15899;SDS011;8048;50.644;6.184;2024-03-08T03:44:04;19.97;;;14.43;;
15899;SDS011;8048;50.644;6.184;2024-03-08T03:46:31;17.90;;;14.73;;
15899;SDS011;8048;50.644;6.184;2024-03-08T03:48:57;21.50;;;14.90;;
15899;SDS011;8048;50.644;6.184;2024-03-08T03:51:24;22.97;;;15.50;;
15899;SDS011;8048;50.644;6.184;2024-03-08T03:53:50;22.13;;;15.87;;
15899;SDS011;8048;50.644;6.184;2024-03-08T03:56:16;16.57;;;13.03;;
15899;SDS011;8048;50.644;6.184;2024-03-08T03:58:42;18.10;;;12.73;;
15899;SDS011;8048;50.644;6.184;2024-03-08T04:01:07;20.27;;;14.00;;
15899;SDS011;8048;50.644;6.184;2024-03-08T04:03:34;19.73;;;14.50;;
15899;SDS011;8048;50.644;6.184;2024-03-08T04:06:00;19.93;;;15.50;;
15899;SDS011;8048;50.644;6.184;2024-03-08T04:08:27;16.43;;;13.40;;
15899;SDS011;8048;50.644;6.184;2024-03-08T04:10:52;17.43;;;13.03;;
15899;SDS011;8048;50.644;6.184;2024-03-08T04:13:18;16.50;;;13.53;;
15899;SDS011;8048;50.644;6.184;2024-03-08T04:15:45;22.43;;;15.23;;
15899;SDS011;8048;50.644;6.184;2024-03-08T04:18:13;21.30;;;14.33;;
15899;SDS011;8048;50.644;6.184;2024-03-08T04:20:39;20.30;;;13.17;;
15899;SDS011;8048;50.644;6.184;2024-03-08T04:23:05;15.60;;;10.63;;
15899;SDS011;8048;50.644;6.184;2024-03-08T04:25:31;18.43;;;12.77;;
15899;SDS011;8048;50.644;6.184;2024-03-08T04:27:57;17.43;;;13.70;;
15899;SDS011;8048;50.644;6.184;2024-03-08T04:30:22;25.50;;;14.30;;
15899;SDS011;8048;50.644;6.184;2024-03-08T04:32:49;18.73;;;14.30;;
15899;SDS011;8048;50.644;6.184;2024-03-08T04:35:14;20.60;;;14.00;;
15899;SDS011;8048;50.644;6.184;2024-03-08T04:37:40;18.00;;;13.27;;
15899;SDS011;8048;50.644;6.184;2024-03-08T04:40:06;19.13;;;13.37;;
15899;SDS011;8048;50.644;6.184;2024-03-08T04:42:33;20.20;;;13.83;;
15899;SDS011;8048;50.644;6.184;2024-03-08T04:45:02;22.30;;;14.37;;
15899;SDS011;8048;50.644;6.184;2024-03-08T04:47:29;15.17;;;13.13;;
15899;SDS011;8048;50.644;6.184;2024-03-08T04:49:54;18.93;;;14.57;;
15899;SDS011;8048;50.644;6.184;2024-03-08T04:52:21;24.60;;;14.47;;
15899;SDS011;8048;50.644;6.184;2024-03-08T04:54:47;23.10;;;15.03;;
15899;SDS011;8048;50.644;6.184;2024-03-08T04:57:13;28.13;;;16.47;;
15899;SDS011;8048;50.644;6.184;2024-03-08T04:59:38;20.83;;;14.03;;
15899;SDS011;8048;50.644;6.184;2024-03-08T05:02:04;16.13;;;12.80;;
15899;SDS011;8048;50.644;6.184;2024-03-08T05:04:32;22.47;;;13.13;;
15899;SDS011;8048;50.644;6.184;2024-03-08T05:06:58;25.70;;;15.57;;
15899;SDS011;8048;50.644;6.184;2024-03-08T05:09:26;20.20;;;15.10;;
15899;SDS011;8048;50.644;6.184;2024-03-08T05:11:56;24.47;;;16.10;;
15899;SDS011;8048;50.644;6.184;2024-03-08T05:14:24;24.13;;;16.10;;
15899;SDS011;8048;50.644;6.184;2024-03-08T05:16:50;23.07;;;12.73;;
15899;SDS011;8048;50.644;6.184;2024-03-08T05:19:16;27.17;;;13.53;;
15899;SDS011;8048;50.644;6.184;2024-03-08T05:21:51;24.10;;;14.53;;
15899;SDS011;8048;50.644;6.184;2024-03-08T05:24:17;18.30;;;14.37;;
15899;SDS011;8048;50.644;6.184;2024-03-08T05:26:42;21.37;;;14.43;;
15899;SDS011;8048;50.644;6.184;2024-03-08T05:29:09;18.00;;;14.03;;
15899;SDS011;8048;50.644;6.184;2024-03-08T05:31:50;21.20;;;14.13;;
15899;SDS011;8048;50.644;6.184;2024-03-08T05:34:17;19.07;;;13.50;;
15899;SDS011;8048;50.644;6.184;2024-03-08T05:36:44;17.53;;;14.60;;
15899;SDS011;8048;50.644;6.184;2024-03-08T05:39:15;20.27;;;14.70;;
15899;SDS011;8048;50.644;6.184;2024-03-08T05:41:42;20.83;;;14.17;;
15899;SDS011;8048;50.644;6.184;2024-03-08T05:44:08;20.30;;;12.93;;
15899;SDS011;8048;50.644;6.184;2024-03-08T05:46:34;18.53;;;14.50;;
15899;SDS011;8048;50.644;6.184;2024-03-08T05:49:01;22.67;;;14.33;;
15899;SDS011;8048;50.644;6.184;2024-03-08T05:51:33;16.57;;;13.03;;
15899;SDS011;8048;50.644;6.184;2024-03-08T05:54:00;20.60;;;14.80;;
15899;SDS011;8048;50.644;6.184;2024-03-08T05:56:27;19.10;;;14.50;;
15899;SDS011;8048;50.644;6.184;2024-03-08T05:58:54;27.87;;;15.57;;
15899;SDS011;8048;50.644;6.184;2024-03-08T06:01:19;21.80;;;13.90;;
15899;SDS011;8048;50.644;6.184;2024-03-08T06:03:45;22.30;;;15.33;;
15899;SDS011;8048;50.644;6.184;2024-03-08T06:06:12;22.00;;;14.87;;
15899;SDS011;8048;50.644;6.184;2024-03-08T06:08:38;22.80;;;15.33;;
15899;SDS011;8048;50.644;6.184;2024-03-08T06:11:04;20.57;;;14.13;;
15899;SDS011;8048;50.644;6.184;2024-03-08T06:13:31;23.80;;;16.83;;
15899;SDS011;8048;50.644;6.184;2024-03-08T06:15:58;18.30;;;15.10;;
15899;SDS011;8048;50.644;6.184;2024-03-08T06:18:25;18.90;;;14.70;;
15899;SDS011;8048;50.644;6.184;2024-03-08T06:20:51;16.70;;;11.93;;
15899;SDS011;8048;50.644;6.184;2024-03-08T06:23:17;19.13;;;12.70;;
15899;SDS011;8048;50.644;6.184;2024-03-08T06:25:46;18.50;;;13.07;;
15899;SDS011;8048;50.644;6.184;2024-03-08T06:28:11;20.73;;;14.43;;
15899;SDS011;8048;50.644;6.184;2024-03-08T06:30:39;23.77;;;13.70;;
15899;SDS011;8048;50.644;6.184;2024-03-08T06:33:05;21.80;;;14.97;;
15899;SDS011;8048;50.644;6.184;2024-03-08T06:35:30;20.63;;;12.60;;
15899;SDS011;8048;50.644;6.184;2024-03-08T06:38:02;18.47;;;14.70;;
15899;SDS011;8048;50.644;6.184;2024-03-08T06:40:31;16.67;;;13.23;;
15899;SDS011;8048;50.644;6.184;2024-03-08T06:42:56;16.73;;;12.20;;
15899;SDS011;8048;50.644;6.184;2024-03-08T06:45:22;24.30;;;14.90;;
15899;SDS011;8048;50.644;6.184;2024-03-08T06:47:48;17.50;;;14.67;;
15899;SDS011;8048;50.644;6.184;2024-03-08T06:50:14;16.60;;;13.43;;
15899;SDS011;8048;50.644;6.184;2024-03-08T06:52:40;22.13;;;15.67;;
15899;SDS011;8048;50.644;6.184;2024-03-08T06:55:09;21.03;;;15.20;;
15899;SDS011;8048;50.644;6.184;2024-03-08T06:57:41;21.13;;;14.70;;
15899;SDS011;8048;50.644;6.184;2024-03-08T07:00:07;20.43;;;12.40;;
15899;SDS011;8048;50.644;6.184;2024-03-08T07:02:43;20.00;;;12.83;;
15899;SDS011;8048;50.644;6.184;2024-03-08T07:05:13;25.13;;;14.33;;
15899;SDS011;8048;50.644;6.184;2024-03-08T07:07:41;17.33;;;13.07;;
15899;SDS011;8048;50.644;6.184;2024-03-08T07:10:07;21.00;;;15.20;;
15899;SDS011;8048;50.644;6.184;2024-03-08T07:12:36;20.85;;;14.43;;
15899;SDS011;8048;50.644;6.184;2024-03-08T07:15:02;22.87;;;13.03;;
15899;SDS011;8048;50.644;6.184;2024-03-08T07:17:30;21.20;;;15.50;;
15899;SDS011;8048;50.644;6.184;2024-03-08T07:19:55;20.20;;;13.50;;
15899;SDS011;8048;50.644;6.184;2024-03-08T07:22:24;17.85;;;13.90;;
15899;SDS011;8048;50.644;6.184;2024-03-08T07:24:49;19.33;;;14.37;;
15899;SDS011;8048;50.644;6.184;2024-03-08T07:27:41;18.73;;;15.70;;
15899;SDS011;8048;50.644;6.184;2024-03-08T07:30:07;19.33;;;14.30;;
15899;SDS011;8048;50.644;6.184;2024-03-08T07:32:35;22.63;;;13.80;;
15899;SDS011;8048;50.644;6.184;2024-03-08T07:35:00;19.80;;;12.80;;
15899;SDS011;8048;50.644;6.184;2024-03-08T07:37:27;19.30;;;12.27;;
15899;SDS011;8048;50.644;6.184;2024-03-08T07:39:52;29.33;;;16.73;;
15899;SDS011;8048;50.644;6.184;2024-03-08T07:42:18;20.23;;;13.60;;
15899;SDS011;8048;50.644;6.184;2024-03-08T07:44:44;23.37;;;14.57;;
15899;SDS011;8048;50.644;6.184;2024-03-08T07:47:11;21.73;;;14.43;;
15899;SDS011;8048;50.644;6.184;2024-03-08T07:49:37;19.73;;;14.15;;
15899;SDS011;8048;50.644;6.184;2024-03-08T07:52:03;21.60;;;13.40;;
15899;SDS011;8048;50.644;6.184;2024-03-08T07:54:32;23.27;;;15.35;;
15899;SDS011;8048;50.644;6.184;2024-03-08T07:56:59;18.52;;;11.90;;
15899;SDS011;8048;50.644;6.184;2024-03-08T07:59:26;15.80;;;12.40;;
15899;SDS011;8048;50.644;6.184;2024-03-08T08:01:52;16.50;;;14.00;;
15899;SDS011;8048;50.644;6.184;2024-03-08T08:04:18;19.10;;;12.97;;
15899;SDS011;8048;50.644;6.184;2024-03-08T08:06:45;21.98;;;15.00;;
15899;SDS011;8048;50.644;6.184;2024-03-08T08:09:11;18.57;;;12.37;;
15899;SDS011;8048;50.644;6.184;2024-03-08T08:11:39;15.90;;;11.90;;
15899;SDS011;8048;50.644;6.184;2024-03-08T08:14:09;18.40;;;12.07;;
15899;SDS011;8048;50.644;6.184;2024-03-08T08:16:35;19.75;;;13.00;;
15899;SDS011;8048;50.644;6.184;2024-03-08T08:19:02;20.52;;;15.05;;
15899;SDS011;8048;50.644;6.184;2024-03-08T08:21:33;18.90;;;11.83;;
15899;SDS011;8048;50.644;6.184;2024-03-08T08:23:59;18.10;;;13.93;;
15899;SDS011;8048;50.644;6.184;2024-03-08T08:26:27;18.30;;;12.73;;
15899;SDS011;8048;50.644;6.184;2024-03-08T08:28:53;18.97;;;13.37;;
15899;SDS011;8048;50.644;6.184;2024-03-08T08:31:19;16.77;;;13.03;;
15899;SDS011;8048;50.644;6.184;2024-03-08T08:33:45;18.30;;;12.60;;
15899;SDS011;8048;50.644;6.184;2024-03-08T08:36:13;16.83;;;13.00;;
15899;SDS011;8048;50.644;6.184;2024-03-08T08:38:38;16.90;;;13.17;;
15899;SDS011;8048;50.644;6.184;2024-03-08T08:41:04;14.30;;;12.20;;
15899;SDS011;8048;50.644;6.184;2024-03-08T08:43:31;15.33;;;12.63;;
15899;SDS011;8048;50.644;6.184;2024-03-08T08:45:58;18.80;;;12.53;;
15899;SDS011;8048;50.644;6.184;2024-03-08T08:48:24;15.27;;;10.90;;
15899;SDS011;8048;50.644;6.184;2024-03-08T08:50:49;17.50;;;10.87;;
15899;SDS011;8048;50.644;6.184;2024-03-08T08:53:17;15.70;;;12.20;;
15899;SDS011;8048;50.644;6.184;2024-03-08T08:55:43;18.03;;;12.50;;
15899;SDS011;8048;50.644;6.184;2024-03-08T08:58:10;12.37;;;9.80;;
15899;SDS011;8048;50.644;6.184;2024-03-08T09:00:36;13.87;;;9.20;;
15899;SDS011;8048;50.644;6.184;2024-03-08T09:03:02;15.57;;;11.50;;
15899;SDS011;8048;50.644;6.184;2024-03-08T09:05:27;17.00;;;11.90;;
15899;SDS011;8048;50.644;6.184;2024-03-08T09:07:53;13.70;;;9.33;;
15899;SDS011;8048;50.644;6.184;2024-03-08T09:10:20;13.77;;;11.50;;
15899;SDS011;8048;50.644;6.184;2024-03-08T09:12:46;12.83;;;11.20;;
15899;SDS011;8048;50.644;6.184;2024-03-08T09:15:12;14.10;;;10.70;;
15899;SDS011;8048;50.644;6.184;2024-03-08T09:17:38;13.63;;;10.43;;
15899;SDS011;8048;50.644;6.184;2024-03-08T09:20:08;16.80;;;11.90;;
15899;SDS011;8048;50.644;6.184;2024-03-08T09:22:35;15.77;;;11.10;;
15899;SDS011;8048;50.644;6.184;2024-03-08T09:25:01;13.73;;;10.30;;
15899;SDS011;8048;50.644;6.184;2024-03-08T09:27:30;14.53;;;10.57;;
15899;SDS011;8048;50.644;6.184;2024-03-08T09:29:55;9.97;;;8.33;;
15899;SDS011;8048;50.644;6.184;2024-03-08T09:32:21;9.90;;;9.00;;
15899;SDS011;8048;50.644;6.184;2024-03-08T09:34:47;9.33;;;8.40;;
15899;SDS011;8048;50.644;6.184;2024-03-08T09:37:13;19.63;;;11.40;;
15899;SDS011;8048;50.644;6.184;2024-03-08T09:39:39;15.27;;;10.00;;
15899;SDS011;8048;50.644;6.184;2024-03-08T09:42:04;13.50;;;10.40;;
15899;SDS011;8048;50.644;6.184;2024-03-08T09:44:31;13.63;;;10.40;;
15899;SDS011;8048;50.644;6.184;2024-03-08T09:46:57;14.10;;;8.87;;
15899;SDS011;8048;50.644;6.184;2024-03-08T09:49:23;12.33;;;9.80;;
15899;SDS011;8048;50.644;6.184;2024-03-08T09:51:49;11.67;;;10.00;;
15899;SDS011;8048;50.644;6.184;2024-03-08T09:54:16;11.67;;;10.57;;
15899;SDS011;8048;50.644;6.184;2024-03-08T09:56:42;10.77;;;8.90;;
15899;SDS011;8048;50.644;6.184;2024-03-08T09:59:09;12.43;;;11.13;;
15899;SDS011;8048;50.644;6.184;2024-03-08T10:02:01;15.43;;;12.63;;
15899;SDS011;8048;50.644;6.184;2024-03-08T10:04:28;13.03;;;10.50;;
15899;SDS011;8048;50.644;6.184;2024-03-08T10:06:55;15.80;;;11.23;;
15899;SDS011;8048;50.644;6.184;2024-03-08T10:09:25;12.50;;;10.40;;
15899;SDS011;8048;50.644;6.184;2024-03-08T10:11:56;10.70;;;9.60;;
15899;SDS011;8048;50.644;6.184;2024-03-08T10:14:22;10.30;;;9.23;;
15899;SDS011;8048;50.644;6.184;2024-03-08T10:16:49;10.43;;;9.33;;
15899;SDS011;8048;50.644;6.184;2024-03-08T10:19:16;13.10;;;10.00;;
15899;SDS011;8048;50.644;6.184;2024-03-08T10:21:48;11.90;;;9.77;;
15899;SDS011;8048;50.644;6.184;2024-03-08T10:24:14;10.93;;;8.00;;
15899;SDS011;8048;50.644;6.184;2024-03-08T10:26:40;16.90;;;11.47;;
15899;SDS011;8048;50.644;6.184;2024-03-08T10:29:08;11.70;;;10.50;;
15899;SDS011;8048;50.644;6.184;2024-03-08T10:31:34;14.50;;;10.93;;
15899;SDS011;8048;50.644;6.184;2024-03-08T10:34:00;12.03;;;10.23;;
15899;SDS011;8048;50.644;6.184;2024-03-08T10:36:26;13.13;;;10.07;;
15899;SDS011;8048;50.644;6.184;2024-03-08T10:38:53;16.17;;;12.43;;
15899;SDS011;8048;50.644;6.184;2024-03-08T10:41:21;12.30;;;10.83;;
15899;SDS011;8048;50.644;6.184;2024-03-08T10:49:25;13.60;;;11.43;;
15899;SDS011;8048;50.644;6.184;2024-03-08T10:51:59;11.30;;;10.00;;
15899;SDS011;8048;50.644;6.184;2024-03-08T10:54:30;15.27;;;10.77;;
15899;SDS011;8048;50.644;6.184;2024-03-08T10:56:59;13.00;;;10.60;;
15899;SDS011;8048;50.644;6.184;2024-03-08T10:59:27;11.53;;;9.80;;
15899;SDS011;8048;50.644;6.184;2024-03-08T11:01:54;10.53;;;9.53;;
15899;SDS011;8048;50.644;6.184;2024-03-08T11:04:19;11.33;;;10.13;;
15899;SDS011;8048;50.644;6.184;2024-03-08T11:06:48;11.17;;;9.93;;
15899;SDS011;8048;50.644;6.184;2024-03-08T11:09:27;10.77;;;9.33;;
15899;SDS011;8048;50.644;6.184;2024-03-08T11:14:45;9.37;;;8.47;;
15899;SDS011;8048;50.644;6.184;2024-03-08T11:18:00;11.33;;;10.23;;
15899;SDS011;8048;50.644;6.184;2024-03-08T11:20:02;9.83;;;8.80;;
15899;SDS011;8048;50.644;6.184;2024-03-08T11:25:30;14.17;;;9.57;;
15899;SDS011;8048;50.644;6.184;2024-03-08T11:28:07;10.43;;;8.37;;
15899;SDS011;8048;50.644;6.184;2024-03-08T11:30:46;10.33;;;9.30;;
15899;SDS011;8048;50.644;6.184;2024-03-08T11:33:35;12.10;;;8.70;;
15899;SDS011;8048;50.644;6.184;2024-03-08T11:36:11;9.63;;;8.23;;
15899;SDS011;8048;50.644;6.184;2024-03-08T11:38:41;10.30;;;8.93;;
15899;SDS011;8048;50.644;6.184;2024-03-08T11:41:13;9.43;;;8.63;;
15899;SDS011;8048;50.644;6.184;2024-03-08T11:43:43;10.10;;;9.17;;
15899;SDS011;8048;50.644;6.184;2024-03-08T11:46:09;11.30;;;9.80;;
15899;SDS011;8048;50.644;6.184;2024-03-08T11:48:37;9.83;;;8.80;;
15899;SDS011;8048;50.644;6.184;2024-03-08T11:51:09;10.17;;;9.27;;
15899;SDS011;8048;50.644;6.184;2024-03-08T11:53:39;10.67;;;9.57;;
15899;SDS011;8048;50.644;6.184;2024-03-08T11:56:09;9.60;;;8.80;;
15899;SDS011;8048;50.644;6.184;2024-03-08T11:58:38;13.10;;;10.43;;
15899;SDS011;8048;50.644;6.184;2024-03-08T12:01:05;11.00;;;9.93;;
15899;SDS011;8048;50.644;6.184;2024-03-08T12:03:31;11.30;;;9.80;;
15899;SDS011;8048;50.644;6.184;2024-03-08T12:05:59;9.43;;;8.40;;
15899;SDS011;8048;50.644;6.184;2024-03-08T12:08:25;11.07;;;9.87;;
15899;SDS011;8048;50.644;6.184;2024-03-08T12:10:53;11.40;;;10.20;;
15899;SDS011;8048;50.644;6.184;2024-03-08T12:13:24;11.50;;;9.80;;
15899;SDS011;8048;50.644;6.184;2024-03-08T12:15:54;10.63;;;9.53;;
15899;SDS011;8048;50.644;6.184;2024-03-08T12:18:24;11.73;;;9.90;;
15899;SDS011;8048;50.644;6.184;2024-03-08T12:20:51;10.27;;;9.27;;
15899;SDS011;8048;50.644;6.184;2024-03-08T12:23:17;9.10;;;8.40;;
15899;SDS011;8048;50.644;6.184;2024-03-08T12:25:42;10.63;;;9.47;;
15899;SDS011;8048;50.644;6.184;2024-03-08T12:28:09;9.63;;;8.73;;
15899;SDS011;8048;50.644;6.184;2024-03-08T12:30:43;10.37;;;8.90;;
15899;SDS011;8048;50.644;6.184;2024-03-08T12:33:14;11.47;;;8.77;;
15899;SDS011;8048;50.644;6.184;2024-03-08T12:35:40;10.70;;;9.60;;
15899;SDS011;8048;50.644;6.184;2024-03-08T12:38:07;10.17;;;9.27;;
15899;SDS011;8048;50.644;6.184;2024-03-08T12:40:33;10.53;;;9.53;;
15899;SDS011;8048;50.644;6.184;2024-03-08T12:42:59;9.70;;;8.87;;
15899;SDS011;8048;50.644;6.184;2024-03-08T12:45:27;10.63;;;8.83;;
15899;SDS011;8048;50.644;6.184;2024-03-08T12:47:55;10.43;;;9.33;;
15899;SDS011;8048;50.644;6.184;2024-03-08T12:50:21;9.20;;;8.27;;
15899;SDS011;8048;50.644;6.184;2024-03-08T12:52:49;10.17;;;9.17;;
15899;SDS011;8048;50.644;6.184;2024-03-08T12:55:16;11.87;;;9.67;;
15899;SDS011;8048;50.644;6.184;2024-03-08T12:57:43;11.63;;;9.10;;
15899;SDS011;8048;50.644;6.184;2024-03-08T13:00:09;10.83;;;9.73;;
15899;SDS011;8048;50.644;6.184;2024-03-08T13:02:38;9.07;;;8.30;;
15899;SDS011;8048;50.644;6.184;2024-03-08T13:05:05;11.90;;;9.40;;
15899;SDS011;8048;50.644;6.184;2024-03-08T13:07:31;10.53;;;9.50;;
15899;SDS011;8048;50.644;6.184;2024-03-08T13:09:57;10.43;;;9.50;;
15899;SDS011;8048;50.644;6.184;2024-03-08T13:12:24;10.20;;;9.20;;
15899;SDS011;8048;50.644;6.184;2024-03-08T13:14:50;10.03;;;9.13;;
15899;SDS011;8048;50.644;6.184;2024-03-08T13:17:16;11.13;;;9.93;;
15899;SDS011;8048;50.644;6.184;2024-03-08T13:19:43;10.90;;;9.80;;
15899;SDS011;8048;50.644;6.184;2024-03-08T13:22:09;12.10;;;8.83;;
15899;SDS011;8048;50.644;6.184;2024-03-08T13:24:40;10.03;;;9.03;;
15899;SDS011;8048;50.644;6.184;2024-03-08T13:27:09;9.17;;;8.30;;
15899;SDS011;8048;50.644;6.184;2024-03-08T13:29:49;9.30;;;8.40;;
15899;SDS011;8048;50.644;6.184;2024-03-08T13:32:17;11.33;;;10.23;;
15899;SDS011;8048;50.644;6.184;2024-03-08T13:34:45;10.53;;;9.47;;
15899;SDS011;8048;50.644;6.184;2024-03-08T13:37:12;11.43;;;10.30;;
15899;SDS011;8048;50.644;6.184;2024-03-08T13:39:41;11.27;;;10.20;;
15899;SDS011;8048;50.644;6.184;2024-03-08T13:42:10;9.23;;;8.33;;
15899;SDS011;8048;50.644;6.184;2024-03-08T13:44:46;11.17;;;10.07;;
15899;SDS011;8048;50.644;6.184;2024-03-08T13:47:16;9.10;;;8.20;;
15899;SDS011;8048;50.644;6.184;2024-03-08T13:49:42;8.50;;;7.70;;
15899;SDS011;8048;50.644;6.184;2024-03-08T13:52:08;11.37;;;9.17;;
15899;SDS011;8048;50.644;6.184;2024-03-08T13:54:35;8.40;;;7.57;;
15899;SDS011;8048;50.644;6.184;2024-03-08T13:57:01;12.40;;;8.80;;
15899;SDS011;8048;50.644;6.184;2024-03-08T13:59:32;10.40;;;9.50;;
15899;SDS011;8048;50.644;6.184;2024-03-08T14:01:59;11.23;;;10.03;;
15899;SDS011;8048;50.644;6.184;2024-03-08T14:04:27;10.13;;;9.23;;
15899;SDS011;8048;50.644;6.184;2024-03-08T14:06:55;11.07;;;9.93;;
15899;SDS011;8048;50.644;6.184;2024-03-08T14:09:29;10.90;;;9.07;;
15899;SDS011;8048;50.644;6.184;2024-03-08T14:11:56;8.97;;;8.17;;
15899;SDS011;8048;50.644;6.184;2024-03-08T14:14:22;10.00;;;9.10;;
15899;SDS011;8048;50.644;6.184;2024-03-08T14:16:50;10.50;;;9.50;;
15899;SDS011;8048;50.644;6.184;2024-03-08T14:19:22;8.97;;;8.17;;
15899;SDS011;8048;50.644;6.184;2024-03-08T14:21:48;9.87;;;8.87;;
15899;SDS011;8048;50.644;6.184;2024-03-08T14:24:14;9.47;;;8.57;;
15899;SDS011;8048;50.644;6.184;2024-03-08T14:26:41;9.53;;;8.67;;
15899;SDS011;8048;50.644;6.184;2024-03-08T14:29:07;9.73;;;8.73;;
15899;SDS011;8048;50.644;6.184;2024-03-08T14:31:34;8.83;;;8.03;;
15899;SDS011;8048;50.644;6.184;2024-03-08T14:34:01;10.03;;;9.13;;
15899;SDS011;8048;50.644;6.184;2024-03-08T14:36:28;10.90;;;8.90;;
15899;SDS011;8048;50.644;6.184;2024-03-08T14:38:57;11.37;;;9.77;;
15899;SDS011;8048;50.644;6.184;2024-03-08T14:41:22;10.27;;;9.37;;
15899;SDS011;8048;50.644;6.184;2024-03-08T14:43:48;10.30;;;9.30;;
15899;SDS011;8048;50.644;6.184;2024-03-08T14:46:14;11.30;;;9.77;;
15899;SDS011;8048;50.644;6.184;2024-03-08T14:48:49;10.20;;;9.20;;
15899;SDS011;8048;50.644;6.184;2024-03-08T14:51:16;10.47;;;9.53;;
15899;SDS011;8048;50.644;6.184;2024-03-08T14:53:44;12.27;;;11.03;;